createdAt,value
2018-09-06T00:01:04.874Z,6.33
2018-09-06T00:03:33.150Z,5.83
2018-09-06T00:06:01.429Z,6.20
2018-09-06T00:08:32.276Z,6.00
2018-09-06T00:11:00.622Z,6.03
2018-09-06T00:13:28.907Z,6.67
2018-09-06T00:15:57.216Z,6.17
2018-09-06T00:18:25.647Z,7.17
2018-09-06T00:20:53.890Z,6.43
2018-09-06T00:23:22.190Z,6.07
2018-09-06T00:25:50.445Z,6.53
2018-09-06T00:28:18.772Z,6.20
2018-09-06T00:30:47.082Z,6.30
2018-09-06T00:33:15.497Z,5.87
2018-09-06T00:35:43.836Z,6.27
2018-09-06T00:38:12.198Z,6.00
2018-09-06T00:40:40.498Z,6.97
2018-09-06T00:43:08.801Z,6.63
2018-09-06T00:45:37.086Z,6.70
2018-09-06T00:48:05.429Z,6.70
2018-09-06T00:50:39.801Z,6.20
2018-09-06T00:53:08.162Z,6.23
2018-09-06T00:55:36.540Z,6.60
2018-09-06T00:58:04.833Z,6.70
2018-09-06T01:00:33.066Z,6.13
2018-09-06T01:03:01.345Z,5.97
2018-09-06T01:05:30.051Z,6.57
2018-09-06T01:07:58.326Z,6.00
2018-09-06T01:10:26.706Z,6.27
2018-09-06T01:12:54.985Z,6.63
2018-09-06T01:15:23.330Z,6.10
2018-09-06T01:17:51.603Z,5.67
2018-09-06T01:20:19.964Z,6.30
2018-09-06T01:22:48.242Z,6.30
2018-09-06T01:25:16.677Z,6.40
2018-09-06T01:27:45.122Z,6.87
2018-09-06T01:30:13.417Z,6.30
2018-09-06T01:32:41.693Z,6.13
2018-09-06T01:35:09.948Z,7.00
2018-09-06T01:37:38.224Z,6.30
2018-09-06T01:40:06.579Z,6.80
2018-09-06T01:42:34.954Z,6.60
2018-09-06T01:45:03.260Z,6.07
2018-09-06T01:47:32.615Z,6.53
2018-09-06T01:50:00.873Z,6.20
2018-09-06T01:52:29.181Z,7.07
2018-09-06T01:54:57.465Z,6.83
2018-09-06T01:57:25.912Z,6.63
2018-09-06T01:59:54.285Z,7.83
2018-09-06T02:02:22.640Z,6.93
2018-09-06T02:04:50.953Z,7.23
2018-09-06T02:07:19.218Z,7.10
2018-09-06T02:09:47.531Z,7.50
2018-09-06T02:12:15.861Z,7.63
2018-09-06T02:14:44.183Z,7.57
2018-09-06T02:17:12.426Z,7.00
2018-09-06T02:19:40.704Z,7.87
2018-09-06T02:22:08.989Z,7.60
2018-09-06T02:24:37.355Z,7.93
2018-09-06T02:27:05.631Z,7.40
2018-09-06T02:29:33.908Z,7.80
2018-09-06T02:32:02.328Z,8.07
2018-09-06T02:34:30.666Z,7.03
2018-09-06T02:36:58.941Z,7.90
2018-09-06T02:39:27.260Z,7.97
2018-09-06T02:41:55.533Z,8.07
2018-09-06T02:44:23.925Z,7.73
2018-09-06T02:46:52.193Z,8.00
2018-09-06T02:49:24.668Z,8.47
2018-09-06T02:51:52.952Z,8.70
2018-09-06T02:54:21.192Z,8.63
2018-09-06T02:56:49.452Z,9.10
2018-09-06T02:59:17.737Z,9.10
2018-09-06T03:01:46.006Z,9.10
2018-09-06T03:04:14.273Z,9.13
2018-09-06T03:06:42.611Z,9.20
2018-09-06T03:09:10.850Z,10.10
2018-09-06T03:11:44.378Z,9.67
2018-09-06T03:14:12.713Z,10.33
2018-09-06T03:16:40.988Z,9.50
2018-09-06T03:19:09.264Z,10.20
2018-09-06T03:21:37.521Z,9.80
2018-09-06T03:24:05.797Z,10.30
2018-09-06T03:26:34.073Z,9.67
2018-09-06T03:29:02.352Z,10.20
2018-09-06T03:31:30.624Z,10.40
2018-09-06T03:33:58.892Z,10.50
2018-09-06T03:36:27.280Z,11.07
2018-09-06T03:38:55.631Z,10.23
2018-09-06T03:41:23.877Z,10.40
2018-09-06T03:43:52.196Z,11.03
2018-09-06T03:46:20.464Z,11.73
2018-09-06T03:48:48.733Z,10.93
2018-09-06T03:51:16.989Z,13.83
2018-09-06T03:53:45.312Z,13.03
2018-09-06T03:56:13.725Z,13.43
2018-09-06T03:58:42.066Z,13.80
2018-09-06T04:01:10.334Z,13.40
2018-09-06T04:03:38.686Z,14.33
2018-09-06T04:06:07.198Z,14.30
2018-09-06T04:08:35.481Z,13.10
2018-09-06T04:11:03.774Z,13.33
2018-09-06T04:13:32.045Z,14.50
2018-09-06T04:16:00.334Z,13.87
2018-09-06T04:18:28.709Z,14.70
2018-09-06T04:20:56.905Z,14.40
2018-09-06T04:23:25.205Z,14.43
2018-09-06T04:25:53.526Z,14.63
2018-09-06T04:28:21.821Z,14.87
2018-09-06T04:30:50.073Z,14.43
2018-09-06T04:33:18.377Z,15.80
2018-09-06T04:35:46.717Z,15.10
2018-09-06T04:38:14.941Z,15.67
2018-09-06T04:40:43.213Z,15.43
2018-09-06T04:43:11.654Z,14.73
2018-09-06T04:45:39.915Z,15.30
2018-09-06T04:48:08.201Z,15.47
2018-09-06T04:50:37.224Z,15.77
2018-09-06T04:53:05.593Z,15.27
2018-09-06T04:55:33.815Z,14.27
2018-09-06T04:58:02.093Z,15.53
2018-09-06T05:00:30.389Z,17.43
2018-09-06T05:02:58.627Z,15.97
2018-09-06T05:05:26.889Z,16.07
2018-09-06T05:07:55.169Z,15.57
2018-09-06T05:10:23.446Z,16.37
2018-09-06T05:12:51.753Z,15.73
2018-09-06T05:15:20.270Z,16.63
2018-09-06T05:17:48.548Z,18.10
2018-09-06T05:20:16.878Z,16.73
2018-09-06T05:22:45.649Z,17.03
2018-09-06T05:25:14.018Z,15.77
2018-09-06T05:27:42.352Z,18.37
2018-09-06T05:30:10.644Z,18.73
2018-09-06T05:32:38.959Z,21.13
2018-09-06T05:35:07.292Z,19.97
2018-09-06T05:37:35.505Z,18.97
2018-09-06T05:40:03.816Z,18.03
2018-09-06T05:42:32.129Z,18.40
2018-09-06T05:45:00.368Z,19.10
2018-09-06T05:47:28.672Z,19.03
2018-09-06T05:49:56.881Z,21.27
2018-09-06T05:52:25.145Z,19.90
2018-09-06T05:54:53.439Z,20.70
2018-09-06T05:57:21.685Z,21.13
2018-09-06T05:59:50.016Z,23.00
2018-09-06T06:02:18.272Z,24.20
2018-09-06T06:04:46.541Z,24.30
2018-09-06T06:07:14.819Z,24.37
2018-09-06T06:09:43.097Z,26.57
2018-09-06T06:12:11.386Z,25.97
2018-09-06T06:14:39.661Z,24.63
2018-09-06T06:17:07.990Z,27.97
2018-09-06T06:19:36.288Z,26.80
2018-09-06T06:22:04.545Z,28.33
2018-09-06T06:24:32.842Z,31.07
2018-09-06T06:27:01.128Z,27.60
2018-09-06T06:29:29.501Z,31.53
2018-09-06T06:31:57.976Z,35.67
2018-09-06T06:34:26.235Z,32.60
2018-09-06T06:36:54.717Z,34.10
2018-09-06T06:39:23.089Z,33.50
2018-09-06T06:41:51.373Z,34.87
2018-09-06T06:44:19.671Z,34.77
2018-09-06T06:46:47.908Z,33.83
2018-09-06T06:49:16.622Z,33.37
2018-09-06T06:51:44.885Z,34.53
2018-09-06T06:54:13.162Z,33.00
2018-09-06T06:56:41.454Z,33.50
2018-09-06T06:59:09.717Z,32.67
2018-09-06T07:01:38.029Z,33.67
2018-09-06T07:04:06.533Z,33.13
2018-09-06T07:06:35.393Z,32.43
2018-09-06T07:09:05.501Z,31.90
2018-09-06T07:11:33.761Z,31.17
2018-09-06T07:14:02.049Z,30.63
2018-09-06T07:16:30.329Z,32.47
2018-09-06T07:18:58.619Z,32.13
2018-09-06T07:21:26.897Z,30.57
2018-09-06T07:23:55.183Z,29.07
2018-09-06T07:26:23.444Z,30.67
2018-09-06T07:28:51.753Z,30.13
2018-09-06T07:31:20.014Z,31.33
2018-09-06T07:33:48.272Z,30.33
2018-09-06T07:36:16.562Z,30.10
2018-09-06T07:38:44.870Z,28.40
2018-09-06T07:41:13.158Z,28.53
2018-09-06T07:43:41.809Z,27.70
2018-09-06T07:46:10.190Z,29.07
2018-09-06T07:48:38.482Z,28.30
2018-09-06T07:51:07.221Z,28.07
2018-09-06T07:53:35.473Z,27.10
2018-09-06T07:56:03.697Z,28.57
2018-09-06T07:58:32.009Z,26.37
2018-09-06T08:01:00.253Z,25.93
2018-09-06T08:03:29.538Z,26.40
2018-09-06T08:05:57.766Z,26.67
2018-09-06T08:08:26.020Z,26.13
2018-09-06T08:10:54.344Z,23.83
2018-09-06T08:13:22.657Z,25.23
2018-09-06T08:15:50.933Z,24.60
2018-09-06T08:18:19.281Z,22.70
2018-09-06T08:20:47.577Z,21.30
2018-09-06T08:23:16.973Z,24.20
2018-09-06T08:25:45.236Z,23.27
2018-09-06T08:28:13.578Z,21.37
2018-09-06T08:30:41.896Z,24.20
2018-09-06T08:33:10.141Z,20.80
2018-09-06T08:35:38.361Z,21.53
2018-09-06T08:38:07.141Z,20.72
2018-09-06T08:40:35.711Z,19.67
2018-09-06T08:43:04.009Z,18.92
2018-09-06T08:45:32.297Z,19.25
2018-09-06T08:48:00.611Z,18.65
2018-09-06T08:50:28.873Z,18.35
2018-09-06T08:52:57.457Z,18.40
2018-09-06T08:55:26.000Z,17.55
2018-09-06T08:57:54.290Z,17.65
2018-09-06T09:00:22.625Z,17.35
2018-09-06T09:02:50.925Z,18.27
2018-09-06T09:05:19.217Z,18.37
2018-09-06T09:07:47.508Z,16.90
2018-09-06T09:10:15.787Z,16.65
2018-09-06T09:12:44.099Z,16.23
2018-09-06T09:15:12.377Z,16.42
2018-09-06T09:17:40.637Z,16.07
2018-09-06T09:20:08.888Z,16.30
2018-09-06T09:22:37.165Z,16.77
2018-09-06T09:25:05.448Z,14.55
2018-09-06T09:27:33.840Z,14.60
2018-09-06T09:30:02.086Z,14.65
2018-09-06T09:32:30.379Z,14.68
2018-09-06T09:34:58.637Z,14.07
2018-09-06T09:37:26.953Z,13.18
2018-09-06T09:39:55.241Z,13.25
2018-09-06T09:42:23.591Z,12.35
2018-09-06T09:44:51.888Z,13.90
2018-09-06T09:49:50.633Z,12.90
2018-09-06T09:54:46.429Z,12.45
2018-09-06T09:57:14.677Z,11.33
2018-09-06T09:59:42.954Z,10.93
2018-09-06T10:02:16.580Z,11.73
2018-09-06T10:04:50.605Z,10.58
2018-09-06T10:07:24.089Z,9.23
2018-09-06T10:09:52.341Z,9.83
2018-09-06T10:12:20.634Z,10.40
2018-09-06T10:14:48.940Z,10.40
2018-09-06T10:17:17.223Z,10.08
2018-09-06T10:19:45.577Z,10.32
2018-09-06T10:22:13.850Z,10.63
2018-09-06T10:24:42.223Z,10.43
2018-09-06T10:27:10.549Z,10.43
2018-09-06T10:29:38.878Z,10.88
2018-09-06T10:32:07.205Z,10.48
2018-09-06T10:34:35.501Z,10.53
2018-09-06T10:37:04.245Z,10.75
2018-09-06T10:39:32.501Z,9.68
2018-09-06T10:42:00.819Z,10.40
2018-09-06T10:44:29.149Z,9.63
2018-09-06T10:46:58.038Z,10.23
2018-09-06T10:49:26.487Z,10.20
2018-09-06T10:51:54.797Z,9.23
2018-09-06T10:54:23.088Z,10.58
2018-09-06T10:56:51.416Z,9.13
2018-09-06T10:59:19.774Z,10.48
2018-09-06T11:01:48.061Z,9.85
2018-09-06T11:04:16.380Z,9.33
2018-09-06T11:06:44.666Z,9.38
2018-09-06T11:09:12.991Z,9.53
2018-09-06T11:11:41.282Z,9.48
2018-09-06T11:14:09.557Z,9.58
2018-09-06T11:16:37.844Z,10.08
2018-09-06T11:19:06.104Z,9.23
2018-09-06T11:21:34.535Z,11.12
2018-09-06T11:24:02.661Z,9.63
2018-09-06T11:26:30.981Z,9.78
2018-09-06T11:28:59.618Z,9.90
2018-09-06T11:31:27.933Z,9.63
2018-09-06T11:33:56.377Z,10.20
2018-09-06T11:36:24.614Z,10.75
2018-09-06T11:38:52.929Z,10.03
2018-09-06T11:41:21.263Z,10.43
2018-09-06T11:43:49.564Z,9.88
2018-09-06T11:46:18.125Z,10.53
2018-09-06T11:48:46.495Z,10.08
2018-09-06T11:51:14.945Z,10.60
2018-09-06T11:53:43.274Z,9.98
2018-09-06T11:56:11.597Z,10.05
2018-09-06T11:58:40.641Z,10.48
2018-09-06T12:01:09.002Z,9.53
2018-09-06T12:03:37.371Z,10.72
2018-09-06T12:06:05.744Z,10.38
2018-09-06T12:08:34.605Z,10.48
2018-09-06T12:11:02.933Z,9.15
2018-09-06T12:13:31.222Z,10.10
2018-09-06T12:15:59.497Z,9.60
2018-09-06T12:18:28.065Z,9.78
2018-09-06T12:20:56.390Z,9.53
2018-09-06T12:23:24.669Z,10.28
2018-09-06T12:25:53.217Z,9.85
2018-09-06T12:28:21.541Z,9.13
2018-09-06T12:30:49.888Z,9.23
2018-09-06T12:33:18.755Z,10.58
2018-09-06T12:35:47.081Z,9.28
2018-09-06T12:38:15.481Z,10.88
2018-09-06T12:40:43.750Z,10.90
2018-09-06T12:43:12.064Z,9.53
2018-09-06T12:45:40.406Z,9.75
2018-09-06T12:48:08.829Z,9.78
2018-09-06T12:50:37.147Z,9.50
2018-09-06T12:53:05.741Z,8.98
2018-09-06T12:55:34.092Z,10.48
2018-09-06T12:58:02.361Z,10.50
2018-09-06T13:00:30.610Z,9.75
2018-09-06T13:02:58.912Z,9.55
2018-09-06T13:05:27.184Z,9.40
2018-09-06T13:07:55.501Z,9.20
2018-09-06T13:10:23.830Z,8.65
2018-09-06T13:12:52.389Z,9.30
2018-09-06T13:15:20.745Z,8.20
2018-09-06T13:17:49.057Z,9.18
2018-09-06T13:20:17.344Z,8.83
2018-09-06T13:22:45.620Z,9.05
2018-09-06T13:25:14.176Z,9.58
2018-09-06T13:27:42.429Z,7.90
2018-09-06T13:30:10.677Z,8.78
2018-09-06T13:32:38.950Z,8.65
2018-09-06T13:35:07.392Z,8.38
2018-09-06T13:37:35.665Z,8.73
2018-09-06T13:40:04.203Z,7.90
2018-09-06T13:42:32.541Z,8.98
2018-09-06T13:45:00.776Z,8.15
2018-09-06T13:47:29.094Z,9.40
2018-09-06T13:49:57.421Z,9.03
2018-09-06T13:52:25.753Z,9.40
2018-09-06T13:54:54.020Z,9.55
2018-09-06T13:57:22.277Z,9.05
2018-09-06T13:59:50.651Z,8.65
2018-09-06T14:02:18.877Z,7.72
2018-09-06T14:04:47.166Z,9.08
2018-09-06T14:07:15.830Z,9.10
2018-09-06T14:09:44.677Z,9.10
2018-09-06T14:12:13.002Z,8.45
2018-09-06T14:14:41.278Z,9.70
2018-09-06T14:17:09.525Z,8.85
2018-09-06T14:19:37.881Z,8.48
2018-09-06T14:22:06.614Z,9.15
2018-09-06T14:24:34.867Z,9.55
2018-09-06T14:27:03.157Z,8.58
2018-09-06T14:29:31.538Z,8.98
2018-09-06T14:31:59.888Z,9.13
2018-09-06T14:34:28.166Z,8.90
2018-09-06T14:36:56.569Z,8.60
2018-09-06T14:39:24.989Z,9.43
2018-09-06T14:41:53.366Z,9.00
2018-09-06T14:44:21.682Z,8.63
2018-09-06T14:46:49.973Z,9.18
2018-09-06T14:49:18.325Z,8.90
2018-09-06T14:51:46.703Z,8.50
2018-09-06T14:54:14.970Z,8.70
2018-09-06T14:56:43.260Z,8.53
2018-09-06T14:59:11.791Z,8.38
2018-09-06T15:01:40.039Z,9.40
2018-09-06T15:04:08.360Z,8.65
2018-09-06T15:09:14.753Z,8.73
2018-09-06T15:11:43.053Z,8.33
2018-09-06T15:14:11.424Z,9.38
2018-09-06T15:16:39.821Z,8.35
2018-09-06T15:19:08.157Z,8.25
2018-09-06T15:21:36.571Z,8.33
2018-09-06T15:24:04.809Z,8.00
2018-09-06T15:26:33.061Z,8.53
2018-09-06T15:29:01.300Z,8.50
2018-09-06T15:31:30.300Z,7.70
2018-09-06T15:33:58.557Z,7.95
2018-09-06T15:36:26.840Z,8.68
2018-09-06T15:38:55.233Z,8.50
2018-09-06T15:41:23.535Z,8.93
2018-09-06T15:43:51.829Z,7.72
2018-09-06T15:46:20.108Z,8.73
2018-09-06T15:48:48.464Z,8.50
2018-09-06T15:51:16.765Z,8.50
2018-09-06T15:53:45.040Z,10.13
2018-09-06T15:56:13.370Z,9.00
2018-09-06T15:58:41.634Z,8.08
2018-09-06T16:01:09.893Z,7.87
2018-09-06T16:03:38.197Z,7.95
2018-09-06T16:06:06.781Z,8.35
2018-09-06T16:08:35.105Z,8.95
2018-09-06T16:11:03.385Z,8.53
2018-09-06T16:13:31.702Z,8.95
2018-09-06T16:15:59.933Z,8.20
2018-09-06T16:18:28.397Z,8.33
2018-09-06T16:20:56.757Z,8.05
2018-09-06T16:23:25.037Z,8.53
2018-09-06T16:25:53.293Z,8.38
2018-09-06T16:28:22.613Z,7.72
2018-09-06T16:30:50.912Z,8.25
2018-09-06T16:33:19.210Z,9.43
2018-09-06T16:35:47.442Z,8.18
2018-09-06T16:38:16.846Z,8.33
2018-09-06T16:40:45.125Z,7.65
2018-09-06T16:43:13.394Z,7.70
2018-09-06T16:45:41.748Z,7.62
2018-09-06T16:48:10.028Z,8.20
2018-09-06T16:50:38.393Z,7.30
2018-09-06T16:53:06.946Z,7.80
2018-09-06T16:55:35.225Z,7.70
2018-09-06T16:58:03.509Z,7.47
2018-09-06T17:00:31.878Z,8.48
2018-09-06T17:03:00.170Z,7.90
2018-09-06T17:05:28.442Z,7.57
2018-09-06T17:07:56.725Z,7.77
2018-09-06T17:10:25.014Z,7.78
2018-09-06T17:12:53.292Z,7.53
2018-09-06T17:15:21.630Z,8.00
2018-09-06T17:17:49.902Z,8.10
2018-09-06T17:20:18.233Z,8.43
2018-09-06T17:22:46.608Z,10.27
2018-09-06T17:25:14.894Z,8.83
2018-09-06T17:27:43.125Z,8.17
2018-09-06T17:30:11.373Z,8.63
2018-09-06T17:32:39.760Z,8.60
2018-09-06T17:35:08.001Z,9.13
2018-09-06T17:37:36.229Z,8.87
2018-09-06T17:40:04.565Z,9.37
2018-09-06T17:42:33.717Z,8.90
2018-09-06T17:45:02.374Z,8.43
2018-09-06T17:47:30.720Z,8.13
2018-09-06T17:49:58.965Z,8.90
2018-09-06T17:52:27.207Z,8.47
2018-09-06T17:54:55.531Z,7.93
2018-09-06T17:57:23.792Z,8.27
2018-09-06T18:00:55.075Z,8.67
2018-09-06T18:03:23.454Z,8.90
2018-09-06T18:05:51.785Z,7.83
2018-09-06T18:08:20.119Z,8.70
2018-09-06T18:10:48.494Z,9.10
2018-09-06T18:13:16.848Z,9.03
2018-09-06T18:15:45.094Z,9.77
2018-09-06T18:18:13.402Z,8.90
2018-09-06T18:20:41.675Z,9.47
2018-09-06T18:23:09.934Z,8.80
2018-09-06T18:25:38.263Z,9.63
2018-09-06T18:28:06.663Z,9.73
2018-09-06T18:30:35.057Z,10.33
2018-09-06T18:33:03.414Z,10.87
2018-09-06T18:35:31.666Z,10.13
2018-09-06T18:37:59.986Z,10.03
2018-09-06T18:40:28.256Z,9.90
2018-09-06T18:42:56.572Z,10.37
2018-09-06T18:45:24.841Z,9.93
2018-09-06T18:47:53.191Z,10.47
2018-09-06T18:50:21.538Z,9.10
2018-09-06T18:52:49.807Z,9.97
2018-09-06T18:55:18.161Z,11.00
2018-09-06T18:57:46.432Z,11.93
2018-09-06T19:00:14.706Z,11.93
2018-09-06T19:02:43.035Z,13.23
2018-09-06T19:05:11.405Z,12.17
2018-09-06T19:07:39.708Z,11.70
2018-09-06T19:10:07.958Z,12.07
2018-09-06T19:12:36.277Z,11.77
2018-09-06T19:15:04.550Z,14.60
2018-09-06T19:17:32.994Z,11.97
2018-09-06T19:20:01.259Z,11.43
2018-09-06T19:22:29.563Z,10.77
2018-09-06T19:24:57.914Z,11.50
2018-09-06T19:27:26.169Z,11.47
2018-09-06T19:29:54.651Z,11.93
2018-09-06T19:32:22.946Z,11.13
2018-09-06T19:34:51.202Z,12.20
2018-09-06T19:37:19.449Z,12.13
2018-09-06T19:39:47.829Z,10.27
2018-09-06T19:42:16.106Z,11.97
2018-09-06T19:44:44.356Z,12.27
2018-09-06T19:47:12.673Z,13.00
2018-09-06T19:49:41.092Z,12.30
2018-09-06T19:52:09.603Z,11.50
2018-09-06T19:54:44.385Z,12.73
2018-09-06T19:57:12.713Z,12.33
2018-09-06T19:59:41.413Z,11.93
2018-09-06T20:02:09.721Z,12.50
2018-09-06T20:04:38.122Z,11.43
2018-09-06T20:07:06.652Z,12.50
2018-09-06T20:09:34.933Z,13.37
2018-09-06T20:12:03.187Z,11.87
2018-09-06T20:14:31.453Z,13.63
2018-09-06T20:16:59.817Z,14.13
2018-09-06T20:19:28.138Z,12.87
2018-09-06T20:21:56.578Z,13.20
2018-09-06T20:24:24.912Z,13.20
2018-09-06T20:26:53.161Z,13.53
2018-09-06T20:29:21.450Z,14.87
2018-09-06T20:31:49.781Z,14.17
2018-09-06T20:34:18.077Z,14.53
2018-09-06T20:36:46.369Z,14.63
2018-09-06T20:39:14.700Z,13.77
2018-09-06T20:41:42.996Z,15.90
2018-09-06T20:44:11.205Z,14.27
2018-09-06T20:46:39.493Z,16.80
2018-09-06T20:49:07.737Z,14.97
2018-09-06T20:51:36.015Z,15.90
2018-09-06T20:54:04.278Z,16.57
2018-09-06T20:56:32.557Z,15.03
2018-09-06T20:59:00.873Z,15.60
2018-09-06T21:01:29.181Z,14.97
2018-09-06T21:03:57.718Z,15.67
2018-09-06T21:06:26.000Z,16.27
2018-09-06T21:08:54.404Z,16.43
2018-09-06T21:11:22.956Z,19.13
2018-09-06T21:13:51.367Z,18.73
2018-09-06T21:16:19.709Z,18.30
2018-09-06T21:18:47.992Z,18.83
2018-09-06T21:21:16.292Z,18.67
2018-09-06T21:23:44.585Z,20.03
2018-09-06T21:26:12.833Z,21.13
2018-09-06T21:28:41.161Z,21.67
2018-09-06T21:31:09.692Z,19.70
2018-09-06T21:33:37.959Z,20.80
2018-09-06T21:36:06.402Z,21.27
2018-09-06T21:38:34.833Z,20.50
2018-09-06T21:41:06.345Z,22.13
2018-09-06T21:43:34.820Z,23.17
2018-09-06T21:46:03.105Z,23.20
2018-09-06T21:48:31.369Z,25.27
2018-09-06T21:51:03.029Z,26.50
2018-09-06T21:53:31.490Z,28.00
2018-09-06T21:55:59.785Z,27.73
2018-09-06T21:58:28.121Z,30.23
2018-09-06T22:00:56.561Z,32.10
2018-09-06T22:03:30.329Z,32.17
2018-09-06T22:05:58.589Z,39.10
2018-09-06T22:08:26.866Z,41.13
2018-09-06T22:10:55.383Z,42.70
2018-09-06T22:13:23.681Z,39.67
2018-09-06T22:15:51.993Z,41.50
2018-09-06T22:18:20.313Z,46.53
2018-09-06T22:20:48.804Z,43.07
2018-09-06T22:23:17.198Z,41.10
2018-09-06T22:25:45.460Z,41.70
2018-09-06T22:28:13.737Z,45.50
2018-09-06T22:30:42.018Z,46.13
2018-09-06T22:33:10.281Z,43.80
2018-09-06T22:35:38.669Z,43.63
2018-09-06T22:38:06.949Z,51.07
2018-09-06T22:40:35.233Z,50.20
2018-09-06T22:43:03.525Z,45.67
2018-09-06T22:45:31.785Z,46.30
2018-09-06T22:48:00.072Z,51.27
2018-09-06T22:50:28.837Z,50.07
2018-09-06T22:52:57.134Z,52.90
2018-09-06T22:55:25.385Z,55.53
2018-09-06T22:57:53.680Z,55.00
2018-09-06T23:00:22.046Z,56.37
2018-09-06T23:02:55.693Z,56.97
2018-09-06T23:05:24.240Z,62.60
2018-09-06T23:07:52.603Z,54.93
2018-09-06T23:10:20.865Z,60.93
2018-09-06T23:12:49.198Z,53.90
2018-09-06T23:15:17.489Z,53.07
2018-09-06T23:17:45.746Z,58.57
2018-09-06T23:20:14.001Z,59.67
2018-09-06T23:22:42.285Z,59.33
2018-09-06T23:25:10.526Z,58.10
2018-09-06T23:27:38.812Z,60.07
2018-09-06T23:30:07.189Z,57.33
2018-09-06T23:32:35.589Z,59.77
2018-09-06T23:35:03.872Z,69.77
2018-09-06T23:37:32.165Z,62.03
2018-09-06T23:40:00.456Z,58.40
2018-09-06T23:42:28.820Z,62.63
2018-09-06T23:44:57.313Z,66.07
2018-09-06T23:47:25.645Z,65.67
2018-09-06T23:49:53.969Z,74.17
2018-09-06T23:52:22.225Z,60.47
2018-09-06T23:54:50.625Z,67.83
2018-09-06T23:57:18.932Z,67.13
2018-09-06T23:59:47.208Z,72.40
